sensor_id;sensor_type;location;lat;lon;timestamp;P1;durP1;ratioP1;P2;durP2;ratioP2
6043;SDS011;3050;42.660;23.276;2023-06-10T00:01:56;2.20;;;2.00;;
6043;SDS011;3050;42.660;23.276;2023-06-10T00:04:25;2.55;;;2.33;;
6043;SDS011;3050;42.660;23.276;2023-06-10T00:06:52;2.55;;;2.45;;
6043;SDS011;3050;42.660;23.276;2023-06-10T00:09:19;3.08;;;2.60;;
6043;SDS011;3050;42.660;23.276;2023-06-10T00:11:47;2.92;;;2.67;;
6043;SDS011;3050;42.660;23.276;2023-06-10T00:14:15;2.75;;;2.55;;
6043;SDS011;3050;42.660;23.276;2023-06-10T00:16:43;3.30;;;2.83;;
6043;SDS011;3050;42.660;23.276;2023-06-10T00:19:10;5.63;;;3.38;;
6043;SDS011;3050;42.660;23.276;2023-06-10T00:21:39;5.68;;;4.63;;
6043;SDS011;3050;42.660;23.276;2023-06-10T00:24:07;4.25;;;3.88;;
6043;SDS011;3050;42.660;23.276;2023-06-10T00:26:37;8.30;;;4.07;;
6043;SDS011;3050;42.660;23.276;2023-06-10T00:29:04;8.73;;;4.72;;
6043;SDS011;3050;42.660;23.276;2023-06-10T00:31:33;7.15;;;4.38;;
6043;SDS011;3050;42.660;23.276;2023-06-10T00:34:01;4.28;;;3.88;;
6043;SDS011;3050;42.660;23.276;2023-06-10T00:36:29;3.53;;;3.17;;
6043;SDS011;3050;42.660;23.276;2023-06-10T00:38:56;4.13;;;2.75;;
6043;SDS011;3050;42.660;23.276;2023-06-10T00:41:23;6.88;;;2.67;;
6043;SDS011;3050;42.660;23.276;2023-06-10T00:43:51;4.55;;;3.20;;
6043;SDS011;3050;42.660;23.276;2023-06-10T00:46:18;3.40;;;3.10;;
6043;SDS011;3050;42.660;23.276;2023-06-10T00:48:48;3.50;;;3.28;;
6043;SDS011;3050;42.660;23.276;2023-06-10T00:51:16;3.92;;;3.22;;
6043;SDS011;3050;42.660;23.276;2023-06-10T00:53:43;3.97;;;3.42;;
6043;SDS011;3050;42.660;23.276;2023-06-10T00:56:11;3.58;;;3.28;;
6043;SDS011;3050;42.660;23.276;2023-06-10T00:58:39;3.60;;;3.25;;
6043;SDS011;3050;42.660;23.276;2023-06-10T01:01:07;3.30;;;2.53;;
6043;SDS011;3050;42.660;23.276;2023-06-10T01:03:36;3.22;;;2.55;;
6043;SDS011;3050;42.660;23.276;2023-06-10T01:06:06;8.00;;;2.40;;
6043;SDS011;3050;42.660;23.276;2023-06-10T01:08:45;3.13;;;2.75;;
6043;SDS011;3050;42.660;23.276;2023-06-10T01:11:19;2.60;;;2.42;;
6043;SDS011;3050;42.660;23.276;2023-06-10T01:13:51;5.63;;;1.90;;
6043;SDS011;3050;42.660;23.276;2023-06-10T01:16:22;2.33;;;2.13;;
6043;SDS011;3050;42.660;23.276;2023-06-10T01:18:50;2.15;;;2.05;;
6043;SDS011;3050;42.660;23.276;2023-06-10T01:21:21;5.28;;;2.30;;
6043;SDS011;3050;42.660;23.276;2023-06-10T01:23:51;2.75;;;2.47;;
6043;SDS011;3050;42.660;23.276;2023-06-10T01:26:18;2.50;;;2.40;;
6043;SDS011;3050;42.660;23.276;2023-06-10T01:28:50;3.08;;;2.50;;
6043;SDS011;3050;42.660;23.276;2023-06-10T01:31:23;3.35;;;2.35;;
6043;SDS011;3050;42.660;23.276;2023-06-10T01:34:01;7.60;;;2.78;;
6043;SDS011;3050;42.660;23.276;2023-06-10T01:36:35;1.98;;;1.88;;
6043;SDS011;3050;42.660;23.276;2023-06-10T01:39:04;2.45;;;2.25;;
6043;SDS011;3050;42.660;23.276;2023-06-10T01:41:32;2.60;;;2.40;;
6043;SDS011;3050;42.660;23.276;2023-06-10T01:43:59;2.50;;;2.22;;
6043;SDS011;3050;42.660;23.276;2023-06-10T01:46:26;2.55;;;2.35;;
6043;SDS011;3050;42.660;23.276;2023-06-10T01:48:53;4.40;;;2.63;;
6043;SDS011;3050;42.660;23.276;2023-06-10T01:51:20;2.10;;;2.00;;
6043;SDS011;3050;42.660;23.276;2023-06-10T01:53:49;4.20;;;2.50;;
6043;SDS011;3050;42.660;23.276;2023-06-10T01:56:16;2.70;;;2.50;;
6043;SDS011;3050;42.660;23.276;2023-06-10T01:58:45;4.03;;;2.55;;
6043;SDS011;3050;42.660;23.276;2023-06-10T02:01:12;2.70;;;2.50;;
6043;SDS011;3050;42.660;23.276;2023-06-10T02:03:39;2.60;;;2.40;;
6043;SDS011;3050;42.660;23.276;2023-06-10T02:06:06;1.77;;;1.67;;
6043;SDS011;3050;42.660;23.276;2023-06-10T02:08:33;4.55;;;2.75;;
6043;SDS011;3050;42.660;23.276;2023-06-10T02:11:02;7.00;;;4.55;;
6043;SDS011;3050;42.660;23.276;2023-06-10T02:13:29;2.38;;;2.28;;
6043;SDS011;3050;42.660;23.276;2023-06-10T02:15:56;1.67;;;1.60;;
6043;SDS011;3050;42.660;23.276;2023-06-10T02:18:24;1.85;;;1.75;;
6043;SDS011;3050;42.660;23.276;2023-06-10T02:20:52;3.72;;;2.35;;
6043;SDS011;3050;42.660;23.276;2023-06-10T02:23:19;2.22;;;2.03;;
6043;SDS011;3050;42.660;23.276;2023-06-10T02:25:46;2.03;;;1.92;;
6043;SDS011;3050;42.660;23.276;2023-06-10T02:28:14;1.90;;;1.80;;
6043;SDS011;3050;42.660;23.276;2023-06-10T02:30:42;4.30;;;1.88;;
6043;SDS011;3050;42.660;23.276;2023-06-10T02:33:10;2.03;;;1.67;;
6043;SDS011;3050;42.660;23.276;2023-06-10T02:35:37;3.22;;;2.05;;
6043;SDS011;3050;42.660;23.276;2023-06-10T02:38:04;2.15;;;2.05;;
6043;SDS011;3050;42.660;23.276;2023-06-10T02:40:32;2.08;;;1.80;;
6043;SDS011;3050;42.660;23.276;2023-06-10T02:42:59;5.30;;;2.08;;
6043;SDS011;3050;42.660;23.276;2023-06-10T02:45:27;4.13;;;1.90;;
6043;SDS011;3050;42.660;23.276;2023-06-10T02:47:54;2.63;;;2.42;;
6043;SDS011;3050;42.660;23.276;2023-06-10T02:50:21;2.25;;;1.48;;
6043;SDS011;3050;42.660;23.276;2023-06-10T02:52:48;3.00;;;2.13;;
6043;SDS011;3050;42.660;23.276;2023-06-10T02:55:15;2.15;;;2.05;;
6043;SDS011;3050;42.660;23.276;2023-06-10T02:57:42;4.40;;;1.67;;
6043;SDS011;3050;42.660;23.276;2023-06-10T03:00:09;2.28;;;2.17;;
6043;SDS011;3050;42.660;23.276;2023-06-10T03:02:40;1.90;;;1.80;;
6043;SDS011;3050;42.660;23.276;2023-06-10T03:05:08;1.83;;;1.20;;
6043;SDS011;3050;42.660;23.276;2023-06-10T03:07:35;1.50;;;1.40;;
6043;SDS011;3050;42.660;23.276;2023-06-10T03:10:06;1.65;;;1.58;;
6043;SDS011;3050;42.660;23.276;2023-06-10T03:12:34;2.75;;;2.55;;
6043;SDS011;3050;42.660;23.276;2023-06-10T03:15:01;1.77;;;1.52;;
6043;SDS011;3050;42.660;23.276;2023-06-10T03:17:29;1.80;;;1.70;;
6043;SDS011;3050;42.660;23.276;2023-06-10T03:19:57;1.70;;;1.60;;
6043;SDS011;3050;42.660;23.276;2023-06-10T03:22:24;1.45;;;1.35;;
6043;SDS011;3050;42.660;23.276;2023-06-10T03:24:51;1.75;;;1.65;;
6043;SDS011;3050;42.660;23.276;2023-06-10T03:27:18;5.43;;;3.35;;
6043;SDS011;3050;42.660;23.276;2023-06-10T03:29:45;14.57;;;6.25;;
6043;SDS011;3050;42.660;23.276;2023-06-10T03:32:12;2.17;;;2.08;;
6043;SDS011;3050;42.660;23.276;2023-06-10T03:34:40;1.88;;;1.63;;
6043;SDS011;3050;42.660;23.276;2023-06-10T03:37:08;2.50;;;2.15;;
6043;SDS011;3050;42.660;23.276;2023-06-10T03:39:35;4.70;;;2.67;;
6043;SDS011;3050;42.660;23.276;2023-06-10T03:42:03;2.33;;;2.13;;
6043;SDS011;3050;42.660;23.276;2023-06-10T03:44:30;1.92;;;1.83;;
6043;SDS011;3050;42.660;23.276;2023-06-10T03:46:57;2.25;;;2.15;;
6043;SDS011;3050;42.660;23.276;2023-06-10T03:49:25;2.50;;;2.30;;
6043;SDS011;3050;42.660;23.276;2023-06-10T03:51:54;2.55;;;2.13;;
6043;SDS011;3050;42.660;23.276;2023-06-10T03:54:22;3.10;;;2.90;;
6043;SDS011;3050;42.660;23.276;2023-06-10T03:56:49;3.95;;;2.70;;
6043;SDS011;3050;42.660;23.276;2023-06-10T03:59:16;2.40;;;2.30;;
6043;SDS011;3050;42.660;23.276;2023-06-10T04:01:44;2.72;;;2.53;;
6043;SDS011;3050;42.660;23.276;2023-06-10T04:04:13;2.72;;;2.58;;
6043;SDS011;3050;42.660;23.276;2023-06-10T04:06:41;2.60;;;2.40;;
6043;SDS011;3050;42.660;23.276;2023-06-10T04:09:09;2.83;;;2.63;;
6043;SDS011;3050;42.660;23.276;2023-06-10T04:11:38;2.75;;;2.60;;
6043;SDS011;3050;42.660;23.276;2023-06-10T04:14:05;2.58;;;2.38;;
6043;SDS011;3050;42.660;23.276;2023-06-10T04:16:32;3.33;;;2.70;;
6043;SDS011;3050;42.660;23.276;2023-06-10T04:19:00;2.80;;;2.60;;
6043;SDS011;3050;42.660;23.276;2023-06-10T04:21:27;3.50;;;2.55;;
6043;SDS011;3050;42.660;23.276;2023-06-10T04:23:54;2.53;;;2.33;;
6043;SDS011;3050;42.660;23.276;2023-06-10T04:26:21;2.38;;;2.28;;
6043;SDS011;3050;42.660;23.276;2023-06-10T04:28:50;2.78;;;2.58;;
6043;SDS011;3050;42.660;23.276;2023-06-10T04:31:17;2.70;;;2.50;;
6043;SDS011;3050;42.660;23.276;2023-06-10T04:33:44;3.72;;;2.88;;
6043;SDS011;3050;42.660;23.276;2023-06-10T04:36:11;2.55;;;2.35;;
6043;SDS011;3050;42.660;23.276;2023-06-10T04:38:39;3.00;;;2.67;;
6043;SDS011;3050;42.660;23.276;2023-06-10T04:41:07;2.50;;;2.30;;
6043;SDS011;3050;42.660;23.276;2023-06-10T04:43:34;2.42;;;2.22;;
6043;SDS011;3050;42.660;23.276;2023-06-10T04:46:03;2.63;;;2.42;;
6043;SDS011;3050;42.660;23.276;2023-06-10T04:48:31;3.65;;;3.03;;
6043;SDS011;3050;42.660;23.276;2023-06-10T04:51:00;2.78;;;2.20;;
6043;SDS011;3050;42.660;23.276;2023-06-10T04:53:27;3.40;;;3.15;;
6043;SDS011;3050;42.660;23.276;2023-06-10T04:55:55;2.58;;;2.28;;
6043;SDS011;3050;42.660;23.276;2023-06-10T04:58:23;3.20;;;2.83;;
6043;SDS011;3050;42.660;23.276;2023-06-10T05:00:50;6.57;;;3.55;;
6043;SDS011;3050;42.660;23.276;2023-06-10T05:03:19;3.58;;;2.67;;
6043;SDS011;3050;42.660;23.276;2023-06-10T05:05:47;3.53;;;2.30;;
6043;SDS011;3050;42.660;23.276;2023-06-10T05:08:14;2.63;;;2.45;;
6043;SDS011;3050;42.660;23.276;2023-06-10T05:10:41;2.83;;;2.45;;
6043;SDS011;3050;42.660;23.276;2023-06-10T05:13:09;2.25;;;2.10;;
6043;SDS011;3050;42.660;23.276;2023-06-10T05:15:36;2.65;;;2.45;;
6043;SDS011;3050;42.660;23.276;2023-06-10T05:18:03;4.80;;;3.35;;
6043;SDS011;3050;42.660;23.276;2023-06-10T05:20:32;3.65;;;2.40;;
6043;SDS011;3050;42.660;23.276;2023-06-10T05:23:02;2.92;;;2.72;;
6043;SDS011;3050;42.660;23.276;2023-06-10T05:25:30;3.35;;;2.85;;
6043;SDS011;3050;42.660;23.276;2023-06-10T05:27:57;2.75;;;2.55;;
6043;SDS011;3050;42.660;23.276;2023-06-10T05:30:35;3.47;;;3.17;;
6043;SDS011;3050;42.660;23.276;2023-06-10T05:33:02;2.35;;;2.25;;
6043;SDS011;3050;42.660;23.276;2023-06-10T05:35:35;2.65;;;2.45;;
6043;SDS011;3050;42.660;23.276;2023-06-10T05:38:03;3.03;;;2.83;;
6043;SDS011;3050;42.660;23.276;2023-06-10T05:40:31;3.45;;;3.15;;
6043;SDS011;3050;42.660;23.276;2023-06-10T05:42:58;3.13;;;2.90;;
6043;SDS011;3050;42.660;23.276;2023-06-10T05:45:25;2.40;;;1.98;;
6043;SDS011;3050;42.660;23.276;2023-06-10T05:47:54;2.67;;;2.50;;
6043;SDS011;3050;42.660;23.276;2023-06-10T05:50:23;2.70;;;2.50;;
6043;SDS011;3050;42.660;23.276;2023-06-10T05:52:52;3.00;;;2.70;;
6043;SDS011;3050;42.660;23.276;2023-06-10T05:55:20;3.03;;;2.20;;
6043;SDS011;3050;42.660;23.276;2023-06-10T05:57:47;3.10;;;2.80;;
6043;SDS011;3050;42.660;23.276;2023-06-10T06:00:24;2.53;;;2.33;;
6043;SDS011;3050;42.660;23.276;2023-06-10T06:02:52;2.50;;;2.25;;
6043;SDS011;3050;42.660;23.276;2023-06-10T06:05:20;2.90;;;2.70;;
6043;SDS011;3050;42.660;23.276;2023-06-10T06:07:46;4.88;;;3.00;;
6043;SDS011;3050;42.660;23.276;2023-06-10T06:10:17;2.28;;;2.17;;
6043;SDS011;3050;42.660;23.276;2023-06-10T06:12:46;2.45;;;2.33;;
6043;SDS011;3050;42.660;23.276;2023-06-10T06:15:13;2.35;;;2.25;;
6043;SDS011;3050;42.660;23.276;2023-06-10T06:17:40;2.05;;;1.95;;
6043;SDS011;3050;42.660;23.276;2023-06-10T06:20:08;5.00;;;2.42;;
6043;SDS011;3050;42.660;23.276;2023-06-10T06:22:36;2.70;;;2.50;;
6043;SDS011;3050;42.660;23.276;2023-06-10T06:25:03;3.95;;;2.17;;
6043;SDS011;3050;42.660;23.276;2023-06-10T06:27:35;3.05;;;2.75;;
6043;SDS011;3050;42.660;23.276;2023-06-10T06:30:02;4.03;;;2.67;;
6043;SDS011;3050;42.660;23.276;2023-06-10T06:32:30;3.35;;;2.55;;
6043;SDS011;3050;42.660;23.276;2023-06-10T06:34:57;2.90;;;2.70;;
6043;SDS011;3050;42.660;23.276;2023-06-10T06:37:24;4.32;;;2.20;;
6043;SDS011;3050;42.660;23.276;2023-06-10T06:39:52;2.20;;;1.95;;
6043;SDS011;3050;42.660;23.276;2023-06-10T06:42:20;7.13;;;2.03;;
6043;SDS011;3050;42.660;23.276;2023-06-10T06:44:49;2.15;;;2.00;;
6043;SDS011;3050;42.660;23.276;2023-06-10T06:47:16;2.60;;;2.40;;
6043;SDS011;3050;42.660;23.276;2023-06-10T06:49:45;2.70;;;2.42;;
6043;SDS011;3050;42.660;23.276;2023-06-10T06:52:12;2.13;;;2.03;;
6043;SDS011;3050;42.660;23.276;2023-06-10T06:54:40;2.78;;;2.15;;
6043;SDS011;3050;42.660;23.276;2023-06-10T06:57:07;2.35;;;2.15;;
6043;SDS011;3050;42.660;23.276;2023-06-10T06:59:34;2.55;;;2.35;;
6043;SDS011;3050;42.660;23.276;2023-06-10T07:02:04;3.05;;;2.08;;
6043;SDS011;3050;42.660;23.276;2023-06-10T07:04:32;2.72;;;1.83;;
6043;SDS011;3050;42.660;23.276;2023-06-10T07:07:07;1.88;;;1.77;;
6043;SDS011;3050;42.660;23.276;2023-06-10T07:09:34;2.15;;;1.92;;
6043;SDS011;3050;42.660;23.276;2023-06-10T07:12:03;1.90;;;1.85;;
6043;SDS011;3050;42.660;23.276;2023-06-10T07:14:33;2.05;;;1.95;;
6043;SDS011;3050;42.660;23.276;2023-06-10T07:17:03;1.30;;;1.30;;
6043;SDS011;3050;42.660;23.276;2023-06-10T07:19:30;1.92;;;1.83;;
6043;SDS011;3050;42.660;23.276;2023-06-10T07:21:57;3.33;;;1.70;;
6043;SDS011;3050;42.660;23.276;2023-06-10T07:24:24;1.80;;;1.70;;
6043;SDS011;3050;42.660;23.276;2023-06-10T07:26:52;1.73;;;1.63;;
6043;SDS011;3050;42.660;23.276;2023-06-10T07:29:19;1.25;;;1.25;;
6043;SDS011;3050;42.660;23.276;2023-06-10T07:31:47;1.65;;;1.20;;
6043;SDS011;3050;42.660;23.276;2023-06-10T07:34:15;2.13;;;1.70;;
6043;SDS011;3050;42.660;23.276;2023-06-10T07:36:42;3.75;;;1.88;;
6043;SDS011;3050;42.660;23.276;2023-06-10T07:39:09;1.50;;;1.45;;
6043;SDS011;3050;42.660;23.276;2023-06-10T07:41:36;1.60;;;1.60;;
6043;SDS011;3050;42.660;23.276;2023-06-10T07:44:03;1.80;;;1.70;;
6043;SDS011;3050;42.660;23.276;2023-06-10T07:46:31;3.78;;;1.77;;
6043;SDS011;3050;42.660;23.276;2023-06-10T07:48:59;1.92;;;1.75;;
6043;SDS011;3050;42.660;23.276;2023-06-10T07:51:27;2.38;;;1.58;;
6043;SDS011;3050;42.660;23.276;2023-06-10T07:53:54;2.13;;;1.83;;
6043;SDS011;3050;42.660;23.276;2023-06-10T07:56:24;3.83;;;2.30;;
6043;SDS011;3050;42.660;23.276;2023-06-10T07:58:51;1.80;;;1.70;;
6043;SDS011;3050;42.660;23.276;2023-06-10T08:01:18;2.20;;;2.00;;
6043;SDS011;3050;42.660;23.276;2023-06-10T08:03:46;1.63;;;1.52;;
6043;SDS011;3050;42.660;23.276;2023-06-10T08:06:12;1.42;;;1.42;;
6043;SDS011;3050;42.660;23.276;2023-06-10T08:08:43;2.42;;;1.50;;
6043;SDS011;3050;42.660;23.276;2023-06-10T08:11:11;2.55;;;1.60;;
6043;SDS011;3050;42.660;23.276;2023-06-10T08:13:39;1.33;;;1.33;;
6043;SDS011;3050;42.660;23.276;2023-06-10T08:16:06;1.27;;;1.27;;
6043;SDS011;3050;42.660;23.276;2023-06-10T08:18:33;1.42;;;1.42;;
6043;SDS011;3050;42.660;23.276;2023-06-10T08:21:01;2.58;;;1.58;;
6043;SDS011;3050;42.660;23.276;2023-06-10T08:23:28;1.75;;;1.65;;
6043;SDS011;3050;42.660;23.276;2023-06-10T08:25:56;2.25;;;1.92;;
6043;SDS011;3050;42.660;23.276;2023-06-10T08:28:24;1.30;;;1.17;;
6043;SDS011;3050;42.660;23.276;2023-06-10T08:30:51;1.80;;;1.80;;
6043;SDS011;3050;42.660;23.276;2023-06-10T08:33:19;1.70;;;1.60;;
6043;SDS011;3050;42.660;23.276;2023-06-10T08:35:46;1.48;;;1.38;;
6043;SDS011;3050;42.660;23.276;2023-06-10T08:38:14;1.33;;;1.33;;
6043;SDS011;3050;42.660;23.276;2023-06-10T08:40:41;1.45;;;1.35;;
6043;SDS011;3050;42.660;23.276;2023-06-10T08:43:14;2.17;;;1.67;;
6043;SDS011;3050;42.660;23.276;2023-06-10T08:45:48;1.40;;;1.40;;
6043;SDS011;3050;42.660;23.276;2023-06-10T08:48:16;1.33;;;1.33;;
6043;SDS011;3050;42.660;23.276;2023-06-10T08:50:46;1.40;;;1.40;;
6043;SDS011;3050;42.660;23.276;2023-06-10T08:53:18;1.13;;;1.10;;
6043;SDS011;3050;42.660;23.276;2023-06-10T08:55:46;1.15;;;1.15;;
6043;SDS011;3050;42.660;23.276;2023-06-10T08:58:19;1.75;;;1.65;;
6043;SDS011;3050;42.660;23.276;2023-06-10T09:00:47;1.83;;;1.73;;
6043;SDS011;3050;42.660;23.276;2023-06-10T09:03:14;1.70;;;1.60;;
6043;SDS011;3050;42.660;23.276;2023-06-10T09:05:41;1.50;;;1.50;;
6043;SDS011;3050;42.660;23.276;2023-06-10T09:08:10;1.65;;;1.55;;
6043;SDS011;3050;42.660;23.276;2023-06-10T09:10:37;1.65;;;1.55;;
6043;SDS011;3050;42.660;23.276;2023-06-10T09:13:05;1.83;;;1.65;;
6043;SDS011;3050;42.660;23.276;2023-06-10T09:15:33;1.55;;;1.55;;
6043;SDS011;3050;42.660;23.276;2023-06-10T09:18:01;2.00;;;1.90;;
6043;SDS011;3050;42.660;23.276;2023-06-10T09:20:30;1.60;;;1.50;;
6043;SDS011;3050;42.660;23.276;2023-06-10T09:22:57;1.90;;;1.58;;
6043;SDS011;3050;42.660;23.276;2023-06-10T09:25:35;2.17;;;1.90;;
6043;SDS011;3050;42.660;23.276;2023-06-10T09:28:08;3.72;;;2.08;;
6043;SDS011;3050;42.660;23.276;2023-06-10T09:30:41;2.30;;;2.20;;
6043;SDS011;3050;42.660;23.276;2023-06-10T09:33:11;1.63;;;1.63;;
6043;SDS011;3050;42.660;23.276;2023-06-10T09:35:44;1.70;;;1.60;;
6043;SDS011;3050;42.660;23.276;2023-06-10T09:38:14;1.70;;;1.60;;
6043;SDS011;3050;42.660;23.276;2023-06-10T09:40:49;1.85;;;1.75;;
6043;SDS011;3050;42.660;23.276;2023-06-10T09:43:17;1.98;;;1.88;;
6043;SDS011;3050;42.660;23.276;2023-06-10T09:45:49;1.60;;;1.50;;
6043;SDS011;3050;42.660;23.276;2023-06-10T09:48:18;2.00;;;1.40;;
6043;SDS011;3050;42.660;23.276;2023-06-10T09:50:45;1.60;;;1.60;;
6043;SDS011;3050;42.660;23.276;2023-06-10T09:53:12;2.10;;;2.00;;
6043;SDS011;3050;42.660;23.276;2023-06-10T09:55:41;1.63;;;1.52;;
6043;SDS011;3050;42.660;23.276;2023-06-10T09:58:10;2.05;;;1.92;;
6043;SDS011;3050;42.660;23.276;2023-06-10T10:00:37;1.58;;;1.33;;
6043;SDS011;3050;42.660;23.276;2023-06-10T10:03:06;1.80;;;1.70;;
6043;SDS011;3050;42.660;23.276;2023-06-10T10:05:35;1.50;;;1.40;;
6043;SDS011;3050;42.660;23.276;2023-06-10T10:08:03;2.80;;;1.73;;
6043;SDS011;3050;42.660;23.276;2023-06-10T10:10:31;2.05;;;1.95;;
6043;SDS011;3050;42.660;23.276;2023-06-10T10:12:58;1.73;;;1.63;;
6043;SDS011;3050;42.660;23.276;2023-06-10T10:15:28;1.90;;;1.80;;
6043;SDS011;3050;42.660;23.276;2023-06-10T10:17:59;1.73;;;1.55;;
6043;SDS011;3050;42.660;23.276;2023-06-10T10:20:35;1.58;;;1.48;;
6043;SDS011;3050;42.660;23.276;2023-06-10T10:23:07;1.70;;;1.60;;
6043;SDS011;3050;42.660;23.276;2023-06-10T10:25:39;1.60;;;1.60;;
6043;SDS011;3050;42.660;23.276;2023-06-10T10:28:09;1.48;;;1.38;;
6043;SDS011;3050;42.660;23.276;2023-06-10T10:30:37;1.58;;;1.55;;
6043;SDS011;3050;42.660;23.276;2023-06-10T10:33:09;1.88;;;1.77;;
6043;SDS011;3050;42.660;23.276;2023-06-10T10:35:41;1.48;;;1.40;;
6043;SDS011;3050;42.660;23.276;2023-06-10T10:38:08;1.58;;;1.48;;
6043;SDS011;3050;42.660;23.276;2023-06-10T10:40:35;1.10;;;1.10;;
6043;SDS011;3050;42.660;23.276;2023-06-10T10:43:03;2.00;;;1.77;;
6043;SDS011;3050;42.660;23.276;2023-06-10T10:45:31;1.20;;;1.20;;
6043;SDS011;3050;42.660;23.276;2023-06-10T10:48:01;1.10;;;1.10;;
6043;SDS011;3050;42.660;23.276;2023-06-10T10:50:33;2.03;;;1.40;;
6043;SDS011;3050;42.660;23.276;2023-06-10T10:53:02;1.13;;;1.13;;
6043;SDS011;3050;42.660;23.276;2023-06-10T10:55:31;1.45;;;1.17;;
6043;SDS011;3050;42.660;23.276;2023-06-10T10:57:58;3.38;;;1.63;;
6043;SDS011;3050;42.660;23.276;2023-06-10T11:00:29;1.27;;;1.27;;
6043;SDS011;3050;42.660;23.276;2023-06-10T11:03:00;1.50;;;1.40;;
6043;SDS011;3050;42.660;23.276;2023-06-10T11:05:36;1.15;;;1.05;;
6043;SDS011;3050;42.660;23.276;2023-06-10T11:08:07;1.20;;;1.20;;
6043;SDS011;3050;42.660;23.276;2023-06-10T11:10:35;1.42;;;1.33;;
6043;SDS011;3050;42.660;23.276;2023-06-10T11:13:07;1.75;;;1.65;;
6043;SDS011;3050;42.660;23.276;2023-06-10T11:15:38;1.30;;;1.30;;
6043;SDS011;3050;42.660;23.276;2023-06-10T11:18:07;1.13;;;1.13;;
6043;SDS011;3050;42.660;23.276;2023-06-10T11:23:38;1.63;;;1.52;;
6043;SDS011;3050;42.660;23.276;2023-06-10T11:26:09;1.13;;;1.13;;
6043;SDS011;3050;42.660;23.276;2023-06-10T11:28:41;2.20;;;1.35;;
6043;SDS011;3050;42.660;23.276;2023-06-10T11:31:27;1.27;;;1.27;;
6043;SDS011;3050;42.660;23.276;2023-06-10T11:33:56;1.10;;;1.10;;
6043;SDS011;3050;42.660;23.276;2023-06-10T11:36:24;1.40;;;1.40;;
6043;SDS011;3050;42.660;23.276;2023-06-10T11:38:55;1.67;;;1.48;;
6043;SDS011;3050;42.660;23.276;2023-06-10T11:41:23;1.38;;;1.30;;
6043;SDS011;3050;42.660;23.276;2023-06-10T11:43:51;1.33;;;1.33;;
6043;SDS011;3050;42.660;23.276;2023-06-10T11:46:19;1.58;;;1.58;;
6043;SDS011;3050;42.660;23.276;2023-06-10T11:48:49;1.40;;;1.40;;
6043;SDS011;3050;42.660;23.276;2023-06-10T11:51:17;1.45;;;1.45;;
6043;SDS011;3050;42.660;23.276;2023-06-10T11:53:45;2.30;;;2.03;;
6043;SDS011;3050;42.660;23.276;2023-06-10T11:56:15;1.38;;;1.27;;
6043;SDS011;3050;42.660;23.276;2023-06-10T11:58:51;1.45;;;1.45;;
6043;SDS011;3050;42.660;23.276;2023-06-10T12:01:20;1.30;;;1.30;;
6043;SDS011;3050;42.660;23.276;2023-06-10T12:03:50;1.33;;;1.30;;
6043;SDS011;3050;42.660;23.276;2023-06-10T12:06:23;1.77;;;1.67;;
6043;SDS011;3050;42.660;23.276;2023-06-10T12:08:50;1.63;;;1.52;;
6043;SDS011;3050;42.660;23.276;2023-06-10T12:11:19;1.23;;;1.23;;
6043;SDS011;3050;42.660;23.276;2023-06-10T12:13:47;1.45;;;1.45;;
6043;SDS011;3050;42.660;23.276;2023-06-10T12:16:16;1.70;;;1.60;;
6043;SDS011;3050;42.660;23.276;2023-06-10T12:18:44;2.42;;;1.65;;
6043;SDS011;3050;42.660;23.276;2023-06-10T12:21:20;1.75;;;1.75;;
6043;SDS011;3050;42.660;23.276;2023-06-10T12:24:00;2.10;;;2.00;;
6043;SDS011;3050;42.660;23.276;2023-06-10T12:26:39;1.90;;;1.80;;
6043;SDS011;3050;42.660;23.276;2023-06-10T12:29:20;1.65;;;1.65;;
6043;SDS011;3050;42.660;23.276;2023-06-10T12:31:59;1.50;;;1.40;;
6043;SDS011;3050;42.660;23.276;2023-06-10T12:34:31;1.60;;;1.50;;
6043;SDS011;3050;42.660;23.276;2023-06-10T12:37:02;1.30;;;1.30;;
6043;SDS011;3050;42.660;23.276;2023-06-10T12:39:31;1.48;;;1.48;;
6043;SDS011;3050;42.660;23.276;2023-06-10T12:42:00;1.67;;;1.58;;
6043;SDS011;3050;42.660;23.276;2023-06-10T12:44:29;1.60;;;1.50;;
6043;SDS011;3050;42.660;23.276;2023-06-10T12:46:56;1.45;;;1.38;;
6043;SDS011;3050;42.660;23.276;2023-06-10T12:49:24;1.63;;;1.52;;
6043;SDS011;3050;42.660;23.276;2023-06-10T12:51:52;1.55;;;1.45;;
6043;SDS011;3050;42.660;23.276;2023-06-10T12:54:20;1.30;;;1.20;;
6043;SDS011;3050;42.660;23.276;2023-06-10T12:56:47;1.70;;;1.60;;
6043;SDS011;3050;42.660;23.276;2023-06-10T12:59:15;1.38;;;1.27;;
6043;SDS011;3050;42.660;23.276;2023-06-10T13:01:43;1.83;;;1.73;;
6043;SDS011;3050;42.660;23.276;2023-06-10T13:04:10;1.83;;;1.73;;
6043;SDS011;3050;42.660;23.276;2023-06-10T13:06:37;1.40;;;1.30;;
6043;SDS011;3050;42.660;23.276;2023-06-10T13:09:07;2.35;;;1.50;;
6043;SDS011;3050;42.660;23.276;2023-06-10T13:11:35;1.02;;;1.02;;
6043;SDS011;3050;42.660;23.276;2023-06-10T13:14:02;1.90;;;1.40;;
6043;SDS011;3050;42.660;23.276;2023-06-10T13:16:33;1.00;;;1.00;;
6043;SDS011;3050;42.660;23.276;2023-06-10T13:19:03;1.50;;;1.40;;
6043;SDS011;3050;42.660;23.276;2023-06-10T13:21:30;1.83;;;1.73;;
6043;SDS011;3050;42.660;23.276;2023-06-10T13:23:58;1.20;;;1.20;;
6043;SDS011;3050;42.660;23.276;2023-06-10T13:26:25;1.77;;;1.67;;
6043;SDS011;3050;42.660;23.276;2023-06-10T13:28:52;2.22;;;2.00;;
6043;SDS011;3050;42.660;23.276;2023-06-10T13:31:20;1.70;;;1.40;;
6043;SDS011;3050;42.660;23.276;2023-06-10T13:33:49;1.08;;;1.08;;
6043;SDS011;3050;42.660;23.276;2023-06-10T13:36:16;1.42;;;1.33;;
6043;SDS011;3050;42.660;23.276;2023-06-10T13:38:43;1.23;;;1.20;;
6043;SDS011;3050;42.660;23.276;2023-06-10T13:41:10;1.88;;;1.77;;
6043;SDS011;3050;42.660;23.276;2023-06-10T13:43:37;4.93;;;2.20;;
6043;SDS011;3050;42.660;23.276;2023-06-10T13:46:04;2.55;;;1.60;;
6043;SDS011;3050;42.660;23.276;2023-06-10T13:48:32;1.25;;;1.25;;
6043;SDS011;3050;42.660;23.276;2023-06-10T13:51:01;2.00;;;1.65;;
6043;SDS011;3050;42.660;23.276;2023-06-10T13:53:28;1.80;;;1.70;;
6043;SDS011;3050;42.660;23.276;2023-06-10T13:55:55;6.70;;;1.95;;
6043;SDS011;3050;42.660;23.276;2023-06-10T13:58:23;2.40;;;1.30;;
6043;SDS011;3050;42.660;23.276;2023-06-10T14:00:51;1.80;;;1.33;;
6043;SDS011;3050;42.660;23.276;2023-06-10T14:03:21;1.30;;;1.20;;
6043;SDS011;3050;42.660;23.276;2023-06-10T14:05:48;3.28;;;1.40;;
6043;SDS011;3050;42.660;23.276;2023-06-10T14:08:16;1.67;;;1.58;;
6043;SDS011;3050;42.660;23.276;2023-06-10T14:10:43;1.02;;;1.02;;
6043;SDS011;3050;42.660;23.276;2023-06-10T14:13:10;2.55;;;1.48;;
6043;SDS011;3050;42.660;23.276;2023-06-10T14:15:38;2.03;;;1.85;;
6043;SDS011;3050;42.660;23.276;2023-06-10T14:18:05;2.72;;;1.70;;
6043;SDS011;3050;42.660;23.276;2023-06-10T14:20:32;1.70;;;1.60;;
6043;SDS011;3050;42.660;23.276;2023-06-10T14:22:59;1.90;;;1.80;;
6043;SDS011;3050;42.660;23.276;2023-06-10T14:25:28;1.23;;;1.23;;
6043;SDS011;3050;42.660;23.276;2023-06-10T14:27:54;1.13;;;0.98;;
6043;SDS011;3050;42.660;23.276;2023-06-10T14:30:29;1.98;;;1.52;;
6043;SDS011;3050;42.660;23.276;2023-06-10T14:32:57;1.52;;;1.42;;
6043;SDS011;3050;42.660;23.276;2023-06-10T14:35:24;1.63;;;1.52;;
6043;SDS011;3050;42.660;23.276;2023-06-10T14:37:51;1.23;;;1.20;;
6043;SDS011;3050;42.660;23.276;2023-06-10T14:40:18;2.25;;;1.20;;
6043;SDS011;3050;42.660;23.276;2023-06-10T14:42:49;1.25;;;1.25;;
6043;SDS011;3050;42.660;23.276;2023-06-10T14:45:17;1.35;;;1.30;;
6043;SDS011;3050;42.660;23.276;2023-06-10T14:47:44;1.55;;;1.55;;
6043;SDS011;3050;42.660;23.276;2023-06-10T14:50:13;1.38;;;1.30;;
6043;SDS011;3050;42.660;23.276;2023-06-10T14:52:41;2.50;;;1.50;;
6043;SDS011;3050;42.660;23.276;2023-06-10T14:55:08;1.38;;;1.30;;
6043;SDS011;3050;42.660;23.276;2023-06-10T14:57:39;2.67;;;1.40;;
6043;SDS011;3050;42.660;23.276;2023-06-10T15:00:09;1.70;;;1.70;;
6043;SDS011;3050;42.660;23.276;2023-06-10T15:02:40;3.92;;;1.02;;
6043;SDS011;3050;42.660;23.276;2023-06-10T15:05:07;1.30;;;1.20;;
6043;SDS011;3050;42.660;23.276;2023-06-10T15:07:34;1.65;;;1.55;;
6043;SDS011;3050;42.660;23.276;2023-06-10T15:10:02;1.48;;;1.48;;
6043;SDS011;3050;42.660;23.276;2023-06-10T15:12:30;1.50;;;1.50;;